x

South Santa Rosa Is. Ca (46069) Wave Buoy

2:50pm - Mon 25th Sep 2017 All times are PDT. -7 hours from GMT.

  • Sig Wave height 3.9ft
  • Swell Direction
  • Peak Period 8s
  • Average Period 6s
  • Wind
    13mph, 16mph gusts
  • Sea Temp 62°f
  • Air Temp 63°f
  • Sea Pressure 1010mb
  • South Santa Rosa Is. Ca
  • South Santa Rosa Is. Ca

More Historic Weather Station data

Upgrade to MSW Pro to gain access to the past 30 days of data for over 8000 Wavebouys and Weather Stations around the globe.

Join

Comparision Forecast

View Surf forecast
   
Mon 09/25 2:50pm 4ft 8s 6s 13 16 mph 1010mb 62f 63f
1:50pm 4ft 9s 6s 13 16 mph 1010.5mb 62f 63f
12:50pm 4ft 9s 6s 11 13 mph 1011.1mb 62f 63f
11:50am 4.5ft 8s 6s 9 11 mph 1011.4mb 62f 63f
10:50am 4.5ft 9s 6s 7 9 mph 1011.5mb 61f 62f
9:50am 4.5ft 8s 6s 7 9 mph 1011.4mb 60f 62f
8:50am 4.5ft 8s 7s 7 9 mph 1011.4mb 60f 62f
7:50am 4ft 8s 6s 4 4 mph 1010.9mb 60f 62f
6:50am 4.5ft 9s 7s 7 7 mph 1010.6mb 60f 61f
5:50am 4ft 9s 7s 9 9 mph 1010mb 60f 61f
4:50am 4ft 9s 7s 9 11 mph 1009.8mb 60f 61f
3:50am 4.5ft 9s 6s 9 11 mph 1010mb 60f 61f
2:50am 4.5ft 9s 6s 11 13 mph 1010.2mb 60f 61f
1:50am 4ft 9s 5s 13 16 mph 1010.6mb 60f 61f
12:50am 4.5ft 9s 5s 16 18 mph 1011.1mb 60f 62f
Sun 09/24 11:50pm 4ft 9s 6s 13 16 mph 1011.5mb 60f 63f
10:50pm 4.5ft 9s 6s 11 13 mph 1011.9mb 61f 62f
9:50pm 5ft 10s 6s 18 20 mph 1011.5mb 61f 62f
8:50pm 5ft 9s 7s 16 18 mph 1011.4mb 61f 62f
7:50pm 4.5ft 9s 7s 13 16 mph 1011.4mb 61f 62f
6:50pm 4.5ft 9s 6s 13 16 mph 1011.1mb 62f 62f
5:50pm 4ft 9s 6s 13 16 mph 1011mb 62f 62f
4:50pm 4.5ft 9s 6s 16 18 mph 1011.1mb 62f 63f
3:50pm 5ft 9s 6s 13 16 mph 1011.2mb 62f 62f
2:50pm 5ft 9s 6s 16 18 mph 1011.5mb 62f 62f
1:50pm 5.5ft 10s 6s 13 16 mph 1011.9mb 62f 62f
12:50pm 5.5ft 10s 7s 13 16 mph 1012.3mb 62f 61f
11:50am 5.5ft 10s 7s 11 13 mph 1012.6mb 62f 61f
10:50am 6ft 10s 7s 7 9 mph 1012.5mb 62f 61f
9:50am 6ft 10s 7s 7 9 mph 1012.4mb 61f 61f
8:50am 5ft 10s 7s 7 9 mph 1012mb 61f 61f
7:50am 6ft 10s 7s 7 7 mph 1011.5mb 61f 60f
5:50am 4.5ft 10s 7s 9 11 mph 1010.5mb 61f 60f
4:50am 4.5ft 9s 6s 13 13 mph 1010mb 61f 60f
3:50am 5ft 10s 6s 16 18 mph 1010mb 62f 60f
2:50am 5ft 10s 6s 16 18 mph 1010.3mb 62f 61f
1:50am 6ft 10s 6s 18 22 mph 1010.2mb 62f 61f
12:50am 6ft 11s 6s 18 22 mph 1010.3mb 62f 62f
Sat 09/23 11:50pm 6ft 11s 6s 20 25 mph 1010.4mb 62f 62f
10:50pm 6ft 11s 6s 20 25 mph 1010.5mb 62f 61f
9:50pm 6ft 10s 6s 18 20 mph 1010.9mb 62f 62f
8:50pm 6ft 11s 6s 18 22 mph 1011mb 62f 62f
7:50pm 6ft 10s 6s 18 20 mph 1010.7mb 62f 62f
6:50pm 6ft 11s 6s 18 22 mph 1010.7mb 62f 62f
5:50pm 5.5ft 10s 6s 20 22 mph 1010.6mb 62f 62f
4:50pm 6ft 11s 6s 20 25 mph 1010.5mb 62f 62f
3:50pm 6ft 11s 7s 18 22 mph 1010.9mb 62f 62f
2:50pm 5.5ft 11s 7s 16 20 mph 1011.4mb 62f 62f
1:50pm 6ft 11s 7s 16 18 mph 1011.5mb 62f 62f
12:50pm 5.5ft 10s 6s 7 9 mph 1011.6mb 62f 62f
11:50am 6ft 11s 6s 11 13 mph 1011.7mb 62f 61f
10:50am 6ft 11s 6s 11 13 mph 1011.7mb 62f 61f
9:50am 6ft 11s 6s 13 16 mph 1011.3mb 62f 60f
8:50am 6.5ft 11s 6s 18 22 mph 1010.4mb 62f 60f
7:50am 6ft 11s 6s 20 25 mph 1010.1mb 62f 60f
6:50am 6ft 11s 6s 20 25 mph 1009.6mb 62f 60f
5:50am 6.5ft 11s 6s 22 29 mph 1009.2mb 62f 60f
4:50am 6.5ft 11s 6s 22 27 mph 1008.9mb 62f 60f
3:50am 6ft 11s 6s 25 29 mph 1009.2mb 62f 60f
2:50am 6ft 11s 6s 25 27 mph 1009.4mb 62f 60f
1:50am 6ft 11s 6s 25 29 mph 1009.5mb 62f 60f
12:50am 6.5ft 11s 6s 22 27 mph 1009.7mb 62f 61f
Fri 09/22 11:50pm 7ft 11s 6s 20 25 mph 1009.9mb 62f 61f
10:50pm 7ft 11s 6s 20 25 mph 1010.1mb 62f 61f
9:50pm 7ft 10s 6s 22 27 mph 1010.4mb 62f 61f
8:50pm 7ft 11s 6s 20 25 mph 1010.4mb 62f 61f
7:50pm 7ft 10s 6s 20 27 mph 1010.3mb 62f 61f
6:50pm 6ft 10s 6s 22 27 mph 1010.1mb 62f 62f
5:50pm 5.5ft 11s 6s 22 27 mph 1010.1mb 62f 62f
4:50pm 5ft 11s 6s 20 22 mph 1010.5mb 62f 62f
3:50pm 5ft 11s 6s 18 22 mph 1010.9mb 62f 61f
2:50pm 6ft 10s 6s 20 25 mph 1011.4mb 62f 61f
1:50pm 6ft 11s 6s 18 20 mph 1011.9mb 62f 61f
12:50pm 6.5ft 11s 6s 20 22 mph 1012.3mb 62f 61f
11:50am 6.5ft 11s 6s 20 22 mph 1012.7mb 62f 60f
10:50am 7ft 11s 6s 20 25 mph 1012.8mb 62f 61f
9:50am 8ft 10s 6s 22 27 mph 1012.7mb 62f 60f
8:50am 8ft 11s 7s 22 27 mph 1012.3mb 61f 60f
7:50am 8ft 11s 6s 22 27 mph 1011.9mb 62f 60f
6:50am 9ft 8s 6s 27 34 mph 1011.5mb 62f 60f
5:50am 8.5ft 8s 6s 27 34 mph 1011mb 62f 60f
4:50am 8.5ft 8s 6s 27 34 mph 1011mb 62f 60f
3:50am 8ft 11s 6s 27 34 mph 1010.8mb 62f 60f
2:50am 8.5ft 11s 6s 29 36 mph 1010.7mb 62f 60f
1:50am 10ft 11s 6s 31 38 mph 1010.8mb 62f 61f
12:50am 9.5ft 10s 6s 31 36 mph 1010.9mb 63f 61f
Thu 09/21 11:50pm 9ft 11s 6s 31 38 mph 1010.7mb 63f 61f
10:50pm 9ft 11s 6s 31 36 mph 1011mb 63f 61f